createdAt,value
2018-03-22T00:00:18.324Z,89.40
2018-03-22T00:01:18.326Z,89.88
2018-03-22T00:02:18.376Z,89.59
2018-03-22T00:03:18.350Z,89.78
2018-03-22T00:04:18.355Z,89.50
2018-03-22T00:05:18.372Z,89.50
2018-03-22T00:06:18.376Z,88.65
2018-03-22T00:07:18.427Z,88.84
2018-03-22T00:08:18.432Z,89.50
2018-03-22T00:09:18.424Z,89.22
2018-03-22T00:10:18.424Z,89.31
2018-03-22T00:11:18.417Z,88.46
2018-03-22T00:12:18.432Z,88.37
2018-03-22T00:13:18.478Z,88.75
2018-03-22T00:14:18.454Z,88.75
2018-03-22T00:15:18.463Z,88.46
2018-03-22T00:16:18.459Z,88.28
2018-03-22T00:17:18.475Z,88.09
2018-03-22T00:18:18.489Z,88.65
2018-03-22T00:19:18.511Z,88.93
2018-03-22T00:20:18.503Z,88.75
2018-03-22T00:21:18.524Z,88.93
2018-03-22T00:22:18.521Z,89.69
2018-03-22T00:23:18.568Z,89.69
2018-03-22T00:24:18.545Z,89.88
2018-03-22T00:25:18.549Z,89.69
2018-03-22T00:26:18.562Z,89.12
2018-03-22T00:27:18.564Z,88.75
2018-03-22T00:28:18.576Z,88.46
2018-03-22T00:29:18.605Z,88.84
2018-03-22T00:30:18.596Z,89.03
2018-03-22T00:31:18.614Z,89.97
2018-03-22T00:32:18.610Z,89.97
2018-03-22T00:33:18.617Z,90.07
2018-03-22T00:34:18.634Z,90.07
2018-03-22T00:35:18.670Z,89.88
2018-03-22T00:36:18.638Z,89.83
2018-03-22T00:37:18.670Z,90.31
2018-03-22T00:38:18.665Z,90.16
2018-03-22T00:39:18.672Z,89.97
2018-03-22T00:40:18.693Z,89.97
2018-03-22T00:41:18.686Z,89.50
2018-03-22T00:42:18.695Z,89.12
2018-03-22T00:43:18.704Z,88.65
2018-03-22T00:44:18.717Z,89.12
2018-03-22T00:45:18.739Z,89.12
2018-03-22T00:46:18.725Z,89.50
2018-03-22T00:47:18.735Z,88.93
2018-03-22T00:48:18.746Z,89.31
2018-03-22T00:49:18.754Z,88.84
2018-03-22T00:50:18.797Z,88.56
2018-03-22T00:51:18.767Z,88.84
2018-03-22T00:52:18.774Z,88.65
2018-03-22T00:53:18.790Z,88.93
2018-03-22T00:54:18.797Z,88.84
2018-03-22T00:55:18.810Z,88.75
2018-03-22T00:56:18.843Z,89.22
2018-03-22T00:57:18.845Z,89.12
2018-03-22T00:58:18.851Z,89.40
2018-03-22T00:59:18.845Z,89.12
2018-03-22T01:00:18.892Z,89.12
2018-03-22T01:01:18.856Z,89.40
2018-03-22T01:02:18.864Z,89.78
2018-03-22T01:03:18.877Z,90.07
2018-03-22T01:04:18.890Z,89.97
2018-03-22T01:05:18.912Z,88.65
2018-03-22T01:06:18.900Z,88.65
2018-03-22T01:07:18.911Z,88.46
2018-03-22T01:08:18.943Z,87.43
2018-03-22T01:09:18.935Z,88.65
2018-03-22T01:10:18.942Z,88.93
2018-03-22T01:11:18.944Z,88.65
2018-03-22T01:12:18.958Z,88.46
2018-03-22T01:13:18.982Z,87.80
2018-03-22T01:14:18.980Z,87.71
2018-03-22T01:15:19.000Z,87.14
2018-03-22T01:16:18.997Z,86.48
2018-03-22T01:17:18.999Z,86.19
2018-03-22T01:18:19.008Z,85.72
2018-03-22T01:19:19.018Z,86.01
2018-03-22T01:20:19.047Z,85.63
2018-03-22T01:21:19.033Z,85.63
2018-03-22T01:22:19.047Z,86.10
2018-03-22T01:23:19.049Z,85.63
2018-03-22T01:24:19.067Z,85.25
2018-03-22T01:25:19.086Z,85.35
2018-03-22T01:26:19.080Z,85.06
2018-03-22T01:27:19.106Z,84.22
2018-03-22T01:28:19.101Z,84.22
2018-03-22T01:29:19.108Z,83.84
2018-03-22T01:30:19.116Z,84.12
2018-03-22T01:31:19.781Z,84.59
2018-03-22T01:32:19.140Z,84.50
2018-03-22T01:33:19.157Z,84.22
2018-03-22T01:34:19.150Z,84.22
2018-03-22T01:35:19.182Z,84.22
2018-03-22T01:36:19.179Z,84.59
2018-03-22T01:37:19.176Z,85.16
2018-03-22T01:38:19.184Z,85.06
2018-03-22T01:39:19.195Z,84.88
2018-03-22T01:40:19.240Z,85.06
2018-03-22T01:41:19.220Z,84.69
2018-03-22T01:42:19.224Z,84.50
2018-03-22T01:43:19.234Z,84.31
2018-03-22T01:44:19.237Z,83.93
2018-03-22T01:45:19.270Z,84.03
2018-03-22T01:46:19.258Z,83.84
2018-03-22T01:47:19.268Z,83.36
2018-03-22T01:48:20.380Z,82.84
2018-03-22T01:49:19.306Z,82.56
2018-03-22T01:50:19.345Z,81.42
2018-03-22T01:51:19.320Z,81.33
2018-03-22T01:52:19.335Z,81.04
2018-03-22T01:53:19.342Z,81.80
2018-03-22T01:54:19.349Z,81.61
2018-03-22T01:55:19.371Z,81.33
2018-03-22T01:56:19.390Z,82.04
2018-03-22T01:57:19.378Z,81.95
2018-03-22T01:58:19.381Z,81.95
2018-03-22T01:59:19.387Z,82.14
2018-03-22T02:00:19.593Z,82.23
2018-03-22T02:01:19.437Z,82.14
2018-03-22T02:02:19.423Z,82.32
2018-03-22T02:03:19.431Z,82.61
2018-03-22T02:04:19.508Z,82.23
2018-03-22T02:05:19.443Z,81.76
2018-03-22T02:06:19.457Z,81.67
2018-03-22T02:07:19.459Z,81.85
2018-03-22T02:08:19.478Z,82.32
2018-03-22T02:09:19.502Z,81.67
2018-03-22T02:10:19.483Z,82.23
2018-03-22T02:11:19.495Z,82.04
2018-03-22T02:12:19.512Z,81.85
2018-03-22T02:13:19.516Z,82.42
2018-03-22T02:14:19.538Z,82.51
2018-03-22T02:15:19.528Z,81.95
2018-03-22T02:16:19.535Z,81.85
2018-03-22T02:17:19.541Z,82.32
2018-03-22T02:18:19.619Z,83.17
2018-03-22T02:19:19.570Z,83.17
2018-03-22T02:20:19.586Z,82.99
2018-03-22T02:21:19.584Z,82.51
2018-03-22T02:22:19.605Z,82.04
2018-03-22T02:23:19.626Z,81.76
2018-03-22T02:24:19.607Z,81.76
2018-03-22T02:25:19.612Z,82.32
2018-03-22T02:26:19.660Z,81.95
2018-03-22T02:27:19.655Z,82.23
2018-03-22T02:28:19.685Z,81.95
2018-03-22T02:29:19.664Z,82.99
2018-03-22T02:30:19.662Z,82.61
2018-03-22T02:31:19.671Z,81.76
2018-03-22T02:32:19.716Z,82.32
2018-03-22T02:33:19.688Z,82.04
2018-03-22T02:34:19.707Z,81.76
2018-03-22T02:35:19.716Z,81.85
2018-03-22T02:36:19.775Z,81.95
2018-03-22T02:37:19.730Z,80.91
2018-03-22T02:38:19.732Z,81.20
2018-03-22T02:39:19.769Z,81.20
2018-03-22T02:40:19.775Z,81.29
2018-03-22T02:41:19.794Z,81.20
2018-03-22T02:42:19.797Z,80.91
2018-03-22T02:43:19.831Z,81.29
2018-03-22T02:44:19.811Z,81.29
2018-03-22T02:45:19.810Z,81.10
2018-03-22T02:46:19.819Z,80.82
2018-03-22T02:47:19.840Z,80.53
2018-03-22T02:48:19.848Z,81.01
2018-03-22T02:49:19.871Z,81.20
2018-03-22T02:50:19.887Z,81.20
2018-03-22T02:51:19.861Z,81.10
2018-03-22T02:52:19.873Z,81.10
2018-03-22T02:53:19.895Z,81.48
2018-03-22T02:54:19.887Z,81.57
2018-03-22T02:55:19.939Z,81.57
2018-03-22T02:56:19.906Z,81.67
2018-03-22T02:57:19.912Z,82.42
2018-03-22T02:58:19.944Z,81.76
2018-03-22T02:59:19.921Z,81.29
2018-03-22T03:00:19.935Z,80.72
2018-03-22T03:01:19.976Z,81.20
2018-03-22T03:02:19.980Z,81.20
2018-03-22T03:03:19.964Z,81.38
2018-03-22T03:04:19.969Z,81.29
2018-03-22T03:05:19.976Z,81.67
2018-03-22T03:06:19.995Z,80.82
2018-03-22T03:07:20.028Z,80.91
2018-03-22T03:08:20.005Z,81.10
2018-03-22T03:09:20.018Z,81.20
2018-03-22T03:10:20.020Z,80.53
2018-03-22T03:11:20.031Z,80.15
2018-03-22T03:12:20.041Z,79.78
2018-03-22T03:13:20.088Z,79.68
2018-03-22T03:14:20.062Z,80.82
2018-03-22T03:15:20.072Z,80.72
2018-03-22T03:16:20.079Z,81.29
2018-03-22T03:17:20.084Z,81.01
2018-03-22T03:18:20.133Z,81.20
2018-03-22T03:19:20.109Z,80.25
2018-03-22T03:20:20.111Z,79.78
2018-03-22T03:21:20.124Z,79.97
2018-03-22T03:22:20.134Z,80.34
2018-03-22T03:23:20.143Z,80.82
2018-03-22T03:24:20.190Z,81.20
2018-03-22T03:25:20.159Z,81.20
2018-03-22T03:26:20.196Z,81.29
2018-03-22T03:27:20.184Z,80.53
2018-03-22T03:28:20.183Z,80.82
2018-03-22T03:29:20.231Z,80.91
2018-03-22T03:30:20.282Z,80.82
2018-03-22T03:31:20.213Z,82.23
2018-03-22T03:32:20.220Z,81.95
2018-03-22T03:33:20.235Z,80.82
2018-03-22T03:34:20.242Z,81.01
2018-03-22T03:35:20.287Z,81.29
2018-03-22T03:36:20.259Z,80.82
2018-03-22T03:37:20.268Z,80.91
2018-03-22T03:38:20.297Z,80.72
2018-03-22T03:39:20.280Z,80.63
2018-03-22T03:40:20.310Z,81.01
2018-03-22T03:41:20.306Z,81.01
2018-03-22T03:42:20.317Z,80.82
2018-03-22T03:43:20.332Z,81.10
2018-03-22T03:44:20.368Z,81.38
2018-03-22T03:45:20.345Z,81.01
2018-03-22T03:46:20.351Z,81.20
2018-03-22T03:47:20.361Z,81.20
2018-03-22T03:48:20.396Z,80.53
2018-03-22T03:49:20.404Z,80.34
2018-03-22T03:50:20.384Z,80.06
2018-03-22T03:51:20.389Z,80.25
2018-03-22T03:52:20.402Z,80.15
2018-03-22T03:53:20.410Z,80.44
2018-03-22T03:54:20.424Z,80.25
2018-03-22T03:55:20.467Z,80.91
2018-03-22T03:56:20.440Z,80.06
2018-03-22T03:57:20.448Z,80.25
2018-03-22T03:58:20.456Z,80.72
2018-03-22T03:59:20.476Z,81.38
2018-03-22T04:00:20.475Z,81.20
2018-03-22T04:01:20.501Z,81.29
2018-03-22T04:02:20.570Z,81.10
2018-03-22T04:03:20.501Z,80.72
2018-03-22T04:04:20.525Z,80.25
2018-03-22T04:05:20.514Z,80.82
2018-03-22T04:06:20.528Z,81.01
2018-03-22T04:07:20.535Z,81.01
2018-03-22T04:08:20.544Z,81.01
2018-03-22T04:09:20.598Z,81.20
2018-03-22T04:10:20.565Z,80.15
2018-03-22T04:11:20.572Z,80.15
2018-03-22T04:12:20.577Z,80.53
2018-03-22T04:13:20.590Z,80.25
2018-03-22T04:14:20.597Z,80.72
2018-03-22T04:15:20.630Z,81.20
2018-03-22T04:16:20.613Z,81.01
2018-03-22T04:17:20.625Z,81.20
2018-03-22T04:18:20.630Z,81.10
2018-03-22T04:19:20.649Z,81.10
2018-03-22T04:20:20.684Z,80.82
2018-03-22T04:21:20.663Z,81.10
2018-03-22T04:22:20.671Z,81.29
2018-03-22T04:23:20.676Z,81.01
2018-03-22T04:24:20.690Z,80.91
2018-03-22T04:25:20.716Z,81.15
2018-03-22T04:26:20.705Z,81.72
2018-03-22T04:27:20.719Z,81.72
2018-03-22T04:28:20.729Z,81.95
2018-03-22T04:29:20.757Z,82.14
2018-03-22T04:30:20.756Z,81.10
2018-03-22T04:31:20.765Z,80.72
2018-03-22T04:32:20.759Z,80.72
2018-03-22T04:33:20.762Z,80.82
2018-03-22T04:34:20.781Z,81.20
2018-03-22T04:35:20.808Z,81.20
2018-03-22T04:36:20.824Z,80.63
2018-03-22T04:37:20.799Z,81.20
2018-03-22T04:38:20.805Z,80.15
2018-03-22T04:39:20.821Z,80.25
2018-03-22T04:40:20.823Z,79.78
2018-03-22T04:41:20.834Z,80.34
2018-03-22T04:42:20.864Z,80.34
2018-03-22T04:43:20.852Z,80.91
2018-03-22T04:44:20.864Z,80.53
2018-03-22T04:45:20.867Z,80.53
2018-03-22T04:47:20.899Z,80.44
2018-03-22T04:48:20.930Z,80.44
2018-03-22T04:49:20.905Z,80.72
2018-03-22T04:50:20.925Z,80.34
2018-03-22T04:51:20.935Z,80.63
2018-03-22T04:52:20.933Z,79.59
2018-03-22T04:53:20.946Z,80.34
2018-03-22T04:54:20.968Z,80.25
2018-03-22T04:55:20.958Z,80.34
2018-03-22T04:56:20.969Z,79.59
2018-03-22T04:57:20.979Z,79.68
2018-03-22T04:58:20.998Z,79.68
2018-03-22T04:59:21.009Z,79.97
2018-03-22T05:00:21.001Z,79.97
2018-03-22T05:01:21.029Z,79.87
2018-03-22T05:02:21.019Z,80.15
2018-03-22T05:03:21.025Z,79.68
2018-03-22T05:04:21.030Z,79.68
2018-03-22T05:05:21.064Z,80.44
2018-03-22T05:06:21.069Z,80.82
2018-03-22T05:07:21.121Z,80.15
2018-03-22T05:08:21.098Z,80.15
2018-03-22T05:09:21.080Z,79.87
2018-03-22T05:10:21.098Z,79.78
2018-03-22T05:11:21.099Z,80.06
2018-03-22T05:12:21.144Z,79.87
2018-03-22T05:13:21.116Z,79.59
2018-03-22T05:14:21.121Z,79.59
2018-03-22T05:15:21.133Z,79.30
2018-03-22T05:16:21.141Z,79.30
2018-03-22T05:17:21.176Z,78.83
2018-03-22T05:18:21.209Z,79.59
2018-03-22T05:19:21.170Z,79.30
2018-03-22T05:20:21.177Z,79.68
2018-03-22T05:21:21.192Z,79.97
2018-03-22T05:22:21.201Z,79.68
2018-03-22T05:23:21.205Z,79.87
2018-03-22T05:24:21.250Z,79.30
2018-03-22T05:25:21.214Z,79.68
2018-03-22T05:26:21.238Z,79.49
2018-03-22T05:27:21.240Z,79.30
2018-03-22T05:28:21.259Z,79.59
2018-03-22T05:29:21.288Z,79.59
2018-03-22T05:30:21.288Z,79.49
2018-03-22T05:31:21.298Z,79.68
2018-03-22T05:32:21.291Z,79.59
2018-03-22T05:33:21.300Z,79.97
2018-03-22T05:34:21.321Z,79.78
2018-03-22T05:35:21.307Z,79.87
2018-03-22T05:36:21.328Z,79.40
2018-03-22T05:37:21.326Z,79.68
2018-03-22T05:38:21.333Z,79.87
2018-03-22T05:39:21.374Z,79.40
2018-03-22T05:40:21.370Z,79.59
2018-03-22T05:41:21.357Z,79.21
2018-03-22T05:42:21.378Z,78.92
2018-03-22T05:43:21.382Z,79.02
2018-03-22T05:44:21.425Z,79.21
2018-03-22T05:45:21.406Z,79.30
2018-03-22T05:46:21.407Z,79.30
2018-03-22T05:47:21.422Z,79.87
2018-03-22T05:48:21.424Z,79.78
2018-03-22T05:49:21.450Z,79.68
2018-03-22T05:50:21.441Z,79.40
2018-03-22T05:51:21.469Z,79.02
2018-03-22T05:52:21.455Z,79.11
2018-03-22T05:53:21.488Z,79.02
2018-03-22T05:54:21.478Z,78.55
2018-03-22T05:55:21.493Z,78.55
2018-03-22T05:56:21.495Z,78.17
2018-03-22T05:57:21.536Z,78.83
2018-03-22T05:58:21.512Z,78.74
2018-03-22T05:59:21.529Z,78.36
2018-03-22T06:00:21.566Z,78.08
2018-03-22T06:01:21.537Z,77.80
2018-03-22T06:02:21.570Z,77.13
2018-03-22T06:03:21.587Z,77.98
2018-03-22T06:04:21.563Z,78.36
2018-03-22T06:05:21.571Z,78.02
2018-03-22T06:06:21.584Z,78.68
2018-03-22T06:07:21.638Z,78.02
2018-03-22T06:08:21.600Z,77.36
2018-03-22T06:09:21.650Z,76.98
2018-03-22T06:10:21.624Z,76.14
2018-03-22T06:11:21.639Z,75.66
2018-03-22T06:12:21.640Z,76.23
2018-03-22T06:13:21.643Z,75.66
2018-03-22T06:14:21.671Z,75.79
2018-03-22T06:15:21.682Z,74.85
2018-03-22T06:16:21.676Z,74.47
2018-03-22T06:17:22.737Z,74.38
2018-03-22T06:18:21.728Z,73.14
2018-03-22T06:19:21.709Z,73.62
2018-03-22T06:20:21.726Z,74.09
2018-03-22T06:21:21.724Z,72.96
2018-03-22T06:22:21.748Z,72.24
2018-03-22T06:23:21.775Z,71.67
2018-03-22T06:24:28.331Z,71.30
2018-03-22T06:25:21.813Z,71.77
2018-03-22T06:26:21.789Z,72.94
2018-03-22T06:27:21.793Z,71.71
2018-03-22T06:28:21.814Z,71.04
2018-03-22T06:29:21.814Z,69.21
2018-03-22T06:30:21.815Z,68.68
2018-03-22T06:31:21.820Z,68.46
2018-03-22T06:32:21.835Z,68.30
2018-03-22T06:33:21.875Z,67.98
2018-03-22T06:34:21.853Z,67.89
2018-03-22T06:35:21.883Z,68.46
2018-03-22T06:36:21.867Z,68.55
2018-03-22T06:37:21.884Z,68.08
2018-03-22T06:38:21.898Z,67.79
2018-03-22T06:39:21.953Z,67.32
2018-03-22T06:40:22.045Z,66.88
2018-03-22T06:41:21.928Z,66.50
2018-03-22T06:42:21.938Z,65.94
2018-03-22T06:43:21.944Z,66.31
2018-03-22T06:44:21.962Z,65.56
2018-03-22T06:45:21.995Z,65.94
2018-03-22T06:46:21.972Z,65.94
2018-03-22T06:47:21.987Z,65.37
2018-03-22T06:48:22.000Z,63.76
2018-03-22T06:49:22.004Z,64.14
2018-03-22T06:50:22.054Z,65.09
2018-03-22T06:51:22.026Z,65.09
2018-03-22T06:52:22.038Z,64.71
2018-03-22T06:53:22.080Z,63.98
2018-03-22T06:54:22.058Z,63.70
2018-03-22T06:55:22.075Z,63.23
2018-03-22T06:56:22.101Z,63.01
2018-03-22T06:57:22.088Z,62.75
2018-03-22T06:58:22.116Z,63.32
2018-03-22T06:59:22.111Z,62.75
2018-03-22T07:00:22.120Z,62.94
2018-03-22T07:01:22.157Z,62.09
2018-03-22T07:02:22.147Z,60.96
2018-03-22T07:03:22.157Z,62.28
2018-03-22T07:04:22.164Z,61.99
2018-03-22T07:05:22.208Z,61.87
2018-03-22T07:06:22.183Z,61.99
2018-03-22T07:07:22.195Z,63.79
2018-03-22T07:08:22.215Z,62.94
2018-03-22T07:09:22.219Z,62.75
2018-03-22T07:10:22.259Z,62.85
2018-03-22T07:11:22.251Z,62.85
2018-03-22T07:12:22.249Z,62.75
2018-03-22T07:13:22.262Z,62.56
2018-03-22T07:14:22.274Z,62.18
2018-03-22T07:15:22.305Z,62.85
2018-03-22T07:16:22.295Z,61.90
2018-03-22T07:17:22.307Z,61.90
2018-03-22T07:18:22.312Z,62.09
2018-03-22T07:19:22.324Z,62.28
2018-03-22T07:20:22.399Z,62.31
2018-03-22T07:21:22.346Z,61.71
2018-03-22T07:22:22.355Z,60.99
2018-03-22T07:23:22.372Z,61.05
2018-03-22T07:24:22.379Z,61.46
2018-03-22T07:25:22.389Z,61.27
2018-03-22T07:26:22.442Z,60.96
2018-03-22T07:27:22.417Z,61.18
2018-03-22T07:28:22.439Z,61.18
2018-03-22T07:29:22.464Z,59.94
2018-03-22T07:30:22.459Z,61.27
2018-03-22T07:31:22.491Z,60.13
2018-03-22T07:32:22.467Z,61.08
2018-03-22T07:33:22.479Z,61.27
2018-03-22T07:34:22.488Z,62.02
2018-03-22T07:35:22.506Z,60.41
2018-03-22T07:36:22.539Z,59.19
2018-03-22T07:37:22.564Z,58.52
2018-03-22T07:38:22.560Z,58.52
2018-03-22T07:39:22.542Z,58.33
2018-03-22T07:40:22.577Z,58.62
2018-03-22T07:41:22.687Z,59.09
2018-03-22T07:42:22.619Z,59.06
2018-03-22T07:43:22.591Z,59.94
2018-03-22T07:44:22.655Z,59.84
2018-03-22T07:45:22.671Z,59.66
2018-03-22T07:46:22.677Z,60.41
2018-03-22T07:47:22.717Z,59.75
2018-03-22T07:48:22.668Z,60.41
2018-03-22T07:49:22.703Z,59.75
2018-03-22T07:50:22.665Z,59.19
2018-03-22T07:51:22.760Z,60.13
2018-03-22T07:52:23.046Z,58.33
2018-03-22T07:53:22.734Z,58.33
2018-03-22T07:54:22.800Z,59.00
2018-03-22T07:55:22.831Z,59.84
2018-03-22T07:56:22.733Z,58.81
2018-03-22T07:57:23.092Z,57.67
2018-03-22T07:58:22.773Z,57.95
2018-03-22T07:59:22.937Z,58.43
2018-03-22T08:00:22.831Z,60.35
2018-03-22T08:01:22.865Z,59.56
2018-03-22T08:02:22.806Z,58.45
2018-03-22T08:03:23.183Z,58.55
2018-03-22T08:04:22.849Z,59.12
2018-03-22T08:05:22.837Z,59.12
2018-03-22T08:06:22.968Z,57.70
2018-03-22T08:07:22.855Z,56.66
2018-03-22T08:08:22.892Z,58.74
2018-03-22T08:09:22.915Z,59.22
2018-03-22T08:10:22.921Z,58.84
2018-03-22T08:11:22.899Z,58.17
2018-03-22T08:12:22.926Z,57.32
2018-03-22T08:13:22.970Z,57.51
2018-03-22T08:14:22.992Z,56.53
2018-03-22T08:15:22.942Z,57.23
2018-03-22T08:16:22.964Z,57.13
2018-03-22T08:17:22.975Z,57.48
2018-03-22T08:18:23.016Z,58.36
2018-03-22T08:19:23.016Z,59.59
2018-03-22T08:20:23.007Z,59.31
2018-03-22T08:21:23.103Z,59.59
2018-03-22T08:22:23.023Z,57.23
2018-03-22T08:23:23.030Z,58.26
2018-03-22T08:24:23.103Z,57.79
2018-03-22T08:25:23.059Z,57.51
2018-03-22T08:26:23.084Z,58.84
2018-03-22T08:27:23.178Z,58.74
2018-03-22T08:28:23.092Z,58.17
2018-03-22T08:29:23.130Z,57.51
2018-03-22T08:30:23.177Z,57.13
2018-03-22T08:31:23.135Z,58.45
2018-03-22T08:32:23.169Z,56.94
2018-03-22T08:33:23.176Z,57.42
2018-03-22T08:34:23.192Z,62.02
2018-03-22T08:35:23.168Z,63.32
2018-03-22T08:36:23.238Z,58.64
2018-03-22T08:37:23.247Z,55.38
2018-03-22T08:38:23.223Z,54.79
2018-03-22T08:39:23.313Z,54.13
2018-03-22T08:40:23.230Z,55.45
2018-03-22T08:41:23.245Z,56.21
2018-03-22T08:42:23.248Z,56.66
2018-03-22T08:43:23.283Z,55.93
2018-03-22T08:44:23.395Z,56.56
2018-03-22T08:45:23.292Z,56.21
2018-03-22T08:46:23.350Z,56.87
2018-03-22T08:47:23.302Z,57.35
2018-03-22T08:48:23.397Z,61.90
2018-03-22T08:49:23.345Z,57.43
2018-03-22T08:50:23.430Z,53.70
2018-03-22T08:51:23.365Z,54.75
2018-03-22T08:52:23.429Z,51.68
2018-03-22T08:53:23.432Z,55.70
2018-03-22T08:54:23.548Z,58.89
2018-03-22T08:55:24.056Z,57.97
2018-03-22T08:56:23.412Z,57.17
2018-03-22T08:57:23.453Z,54.60
2018-03-22T08:58:23.488Z,54.53
2018-03-22T08:59:23.472Z,52.25
2018-03-22T09:00:23.517Z,47.33
2018-03-22T09:01:23.462Z,46.51
2018-03-22T09:02:23.487Z,48.01
2018-03-22T09:03:23.499Z,49.82
2018-03-22T09:04:23.505Z,49.51
2018-03-22T09:05:23.595Z,49.38
2018-03-22T09:06:23.567Z,50.64
2018-03-22T09:07:23.662Z,51.81
2018-03-22T09:08:23.599Z,50.74
2018-03-22T09:09:23.566Z,51.95
2018-03-22T09:10:23.599Z,52.98
2018-03-22T09:11:23.612Z,53.56
2018-03-22T09:12:23.596Z,52.80
2018-03-22T09:13:23.665Z,53.18
2018-03-22T09:14:23.686Z,52.42
2018-03-22T09:15:23.633Z,51.09
2018-03-22T09:16:23.646Z,50.43
2018-03-22T09:17:23.659Z,53.49
2018-03-22T09:18:23.672Z,53.89
2018-03-22T09:19:23.706Z,51.03
2018-03-22T09:20:23.709Z,51.52
2018-03-22T09:21:23.706Z,55.37
2018-03-22T09:22:23.726Z,54.93
2018-03-22T09:23:23.726Z,53.94
2018-03-22T09:24:23.736Z,52.80
2018-03-22T09:25:23.847Z,51.61
2018-03-22T09:26:23.849Z,50.66
2018-03-22T09:27:23.797Z,49.42
2018-03-22T09:28:23.784Z,49.04
2018-03-22T09:29:23.799Z,48.66
2018-03-22T09:30:23.820Z,43.19
2018-03-22T09:31:23.840Z,41.22
2018-03-22T09:32:23.908Z,41.49
2018-03-22T09:33:23.892Z,42.91
2018-03-22T09:34:23.909Z,44.62
2018-03-22T09:35:23.913Z,45.57
2018-03-22T09:36:23.917Z,44.12
2018-03-22T09:37:23.964Z,44.98
2018-03-22T09:38:23.933Z,45.54
2018-03-22T09:39:23.943Z,46.49
2018-03-22T09:40:23.956Z,47.73
2018-03-22T09:41:23.969Z,51.10
2018-03-22T09:42:24.003Z,51.79
2018-03-22T09:43:24.167Z,49.73
2018-03-22T09:44:24.044Z,47.82
2018-03-22T09:45:24.019Z,49.27
2018-03-22T09:46:24.019Z,46.61
2018-03-22T09:47:24.049Z,47.28
2018-03-22T09:48:24.086Z,49.32
2018-03-22T09:49:24.081Z,44.13
2018-03-22T09:50:24.066Z,45.78
2018-03-22T09:51:24.094Z,44.06
2018-03-22T09:52:24.098Z,40.71
2018-03-22T09:53:24.121Z,41.46
2018-03-22T09:54:24.228Z,40.48
2018-03-22T09:55:24.127Z,41.91
2018-03-22T09:56:24.159Z,39.91
2018-03-22T09:57:24.185Z,42.79
2018-03-22T09:58:24.151Z,45.75
2018-03-22T09:59:24.164Z,46.18
2018-03-22T10:00:24.206Z,43.21
2018-03-22T10:01:24.188Z,40.64
2018-03-22T10:02:24.206Z,43.61
2018-03-22T10:03:24.213Z,44.20
2018-03-22T10:04:24.224Z,44.59
2018-03-22T10:05:24.240Z,44.13
2018-03-22T10:06:24.286Z,39.92
2018-03-22T10:07:24.264Z,41.44
2018-03-22T10:08:24.273Z,42.77
2018-03-22T10:09:24.295Z,42.51
2018-03-22T10:10:24.302Z,41.75
2018-03-22T10:11:24.319Z,39.65
2018-03-22T10:12:24.349Z,38.87
2018-03-22T10:13:24.334Z,40.30
2018-03-22T10:14:24.349Z,41.35
2018-03-22T10:15:24.369Z,42.60
2018-03-22T10:16:24.422Z,41.58
2018-03-22T10:17:24.406Z,41.48
2018-03-22T10:18:24.408Z,41.69
2018-03-22T10:19:24.422Z,38.03
2018-03-22T10:20:24.427Z,40.51
2018-03-22T10:21:24.462Z,38.58
2018-03-22T10:22:24.462Z,39.25
2018-03-22T10:23:24.467Z,38.87
2018-03-22T10:24:24.480Z,39.94
2018-03-22T10:25:24.490Z,41.48
2018-03-22T10:26:24.547Z,40.05
2018-03-22T10:27:24.525Z,40.17
2018-03-22T10:28:24.540Z,39.23
2018-03-22T10:29:24.546Z,38.56
2018-03-22T10:30:24.561Z,38.66
2018-03-22T10:31:24.611Z,39.04
2018-03-22T10:32:24.609Z,36.43
2018-03-22T10:33:24.604Z,37.29
2018-03-22T10:34:24.615Z,36.62
2018-03-22T10:35:24.634Z,34.39
2018-03-22T10:36:24.640Z,34.39
2018-03-22T10:37:24.657Z,32.64
2018-03-22T10:38:24.693Z,32.82
2018-03-22T10:39:24.726Z,33.54
2018-03-22T10:40:24.735Z,34.88
2018-03-22T10:41:24.715Z,35.92
2018-03-22T10:42:24.724Z,35.54
2018-03-22T10:43:24.786Z,39.87
2018-03-22T10:44:24.759Z,41.42
2018-03-22T10:45:24.802Z,41.27
2018-03-22T10:46:24.774Z,39.19
2018-03-22T10:47:24.781Z,34.11
2018-03-22T10:48:24.898Z,32.17
2018-03-22T10:49:24.807Z,32.82
2018-03-22T10:50:24.824Z,33.18
2018-03-22T10:51:24.843Z,33.64
2018-03-22T10:52:24.850Z,34.21
2018-03-22T10:53:24.907Z,39.38
2018-03-22T10:54:24.891Z,36.51
2018-03-22T10:55:24.899Z,34.11
2018-03-22T10:56:24.932Z,33.44
2018-03-22T10:57:24.918Z,34.09
2018-03-22T10:58:24.962Z,34.65
2018-03-22T10:59:24.942Z,35.50
2018-03-22T11:00:24.950Z,36.44
2018-03-22T11:01:24.970Z,37.21
2018-03-22T11:02:24.994Z,37.02
2018-03-22T11:03:25.029Z,37.01
2018-03-22T11:04:25.003Z,36.34
2018-03-22T11:05:25.026Z,37.29
2018-03-22T11:06:25.073Z,36.36
2018-03-22T11:07:25.052Z,35.86
2018-03-22T11:08:25.055Z,35.50
2018-03-22T11:09:25.091Z,35.13
2018-03-22T11:10:25.092Z,35.22
2018-03-22T11:11:25.086Z,36.63
2018-03-22T11:12:25.094Z,36.72
2018-03-22T11:13:25.145Z,38.62
2018-03-22T11:14:25.124Z,39.47
2018-03-22T11:15:25.131Z,39.47
2018-03-22T11:16:25.144Z,39.66
2018-03-22T11:17:25.153Z,39.28
2018-03-22T11:18:25.175Z,39.18
2018-03-22T11:19:25.214Z,39.59
2018-03-22T11:20:25.190Z,38.62
2018-03-22T11:21:25.201Z,38.54
2018-03-22T11:22:25.219Z,41.79
2018-03-22T11:23:25.229Z,41.41
2018-03-22T11:24:25.254Z,39.04
2018-03-22T11:25:25.247Z,37.69
2018-03-22T11:26:25.267Z,37.52
2018-03-22T11:27:26.172Z,38.16
2018-03-22T11:28:25.334Z,39.30
2018-03-22T11:29:25.300Z,41.31
2018-03-22T11:30:25.313Z,40.75
2018-03-22T11:31:25.322Z,41.53
2018-03-22T11:32:25.344Z,40.48
2018-03-22T11:33:25.370Z,39.91
2018-03-22T11:34:25.360Z,39.25
2018-03-22T11:35:25.375Z,38.09
2018-03-22T11:36:25.386Z,38.82
2018-03-22T11:37:25.419Z,39.87
2018-03-22T11:38:25.428Z,39.85
2018-03-22T11:39:25.438Z,39.00
2018-03-22T11:40:25.448Z,39.57
2018-03-22T11:41:25.444Z,39.66
2018-03-22T11:42:25.453Z,39.87
2018-03-22T11:43:25.490Z,39.09
2018-03-22T11:44:25.475Z,40.42
2018-03-22T11:45:25.497Z,40.72
2018-03-22T11:46:25.511Z,41.39
2018-03-22T11:47:25.513Z,41.39
2018-03-22T11:48:25.567Z,40.44
2018-03-22T11:49:25.536Z,40.04
2018-03-22T11:50:25.547Z,41.49
2018-03-22T11:51:25.560Z,40.44
2018-03-22T11:52:25.572Z,40.44
2018-03-22T11:53:25.629Z,40.72
2018-03-22T11:54:25.595Z,42.55
2018-03-22T11:55:25.634Z,44.95
2018-03-22T11:56:25.654Z,41.91
2018-03-22T11:57:25.631Z,38.75
2018-03-22T11:58:25.704Z,37.33
2018-03-22T11:59:25.681Z,38.46
2018-03-22T12:00:25.674Z,38.46
2018-03-22T12:01:25.687Z,38.85
2018-03-22T12:02:25.692Z,39.06
2018-03-22T12:03:25.742Z,39.62
2018-03-22T12:04:25.755Z,41.93
2018-03-22T12:05:25.724Z,41.55
2018-03-22T12:06:25.739Z,40.90
2018-03-22T12:07:25.761Z,41.47
2018-03-22T12:08:25.772Z,38.31
2018-03-22T12:09:25.821Z,37.18
2018-03-22T12:10:25.787Z,36.87
2018-03-22T12:11:25.814Z,39.93
2018-03-22T12:12:25.831Z,39.65
2018-03-22T12:13:25.824Z,41.66
2018-03-22T12:14:25.859Z,40.90
2018-03-22T12:15:25.892Z,42.07
2018-03-22T12:16:25.859Z,41.61
2018-03-22T12:17:25.871Z,40.47
2018-03-22T12:18:25.887Z,38.83
2018-03-22T12:19:25.902Z,39.02
2018-03-22T12:20:25.919Z,39.70
2018-03-22T12:21:25.957Z,40.39
2018-03-22T12:22:25.936Z,36.93
2018-03-22T12:23:25.951Z,35.96
2018-03-22T12:24:25.980Z,38.14
2018-03-22T12:25:26.012Z,40.28
2018-03-22T12:26:26.061Z,41.13
2018-03-22T12:27:26.081Z,40.30
2018-03-22T12:28:26.017Z,40.03
2018-03-22T12:29:26.024Z,39.48
2018-03-22T12:30:26.082Z,37.74
2018-03-22T12:31:26.068Z,38.60
2018-03-22T12:32:26.068Z,39.00
2018-03-22T12:33:26.138Z,37.86
2018-03-22T12:34:26.093Z,38.35
2018-03-22T12:35:26.151Z,37.19
2018-03-22T12:36:26.110Z,34.48
2018-03-22T12:37:26.125Z,35.44
2018-03-22T12:38:26.152Z,35.99
2018-03-22T12:39:26.155Z,35.50
2018-03-22T12:40:26.219Z,37.13
2018-03-22T12:41:26.179Z,35.31
2018-03-22T12:42:26.203Z,35.50
2018-03-22T12:43:26.285Z,35.08
2018-03-22T12:44:26.220Z,35.37
2018-03-22T12:45:26.750Z,36.13
2018-03-22T12:46:26.244Z,36.89
2018-03-22T12:47:26.259Z,36.68
2018-03-22T12:48:26.275Z,37.63
2018-03-22T12:49:26.282Z,37.44
2018-03-22T12:50:26.298Z,38.98
2018-03-22T12:51:26.352Z,38.03
2018-03-22T12:52:26.320Z,38.22
2018-03-22T12:53:26.336Z,38.22